aviador You're here:

KLBO Decoded Metar

in
Report Time2018-05-23 06:35:00
UTC Time2018-05-23 06:45:10
Flight Rules vfr VFR
WindCalm
Visibility9999 m
Phenomena:N/A
Clouds:N/A
Expected CloudBase > 800 ft AGL from Temp-Dew spread
CeilingNone
Temp18°C
Dew Point16°C (88% RH)
QNH1019 hPa
Raw Report
KLBO 230635Z AUTO 00000KT 10SM CLR 18/16 A3008 RMK AO2=

Extra information for KLBO:More info

Social comments